Austin, Colorado
Current Conditions -  °F | °C
As of 8:35 AM on Friday 24 Oct 2014 (Local Time) from KAJZ Reporting Station
Clear Clear  
Wind Chill:   Ceiling: Unl
Heat Index:   Visibility: 10mi
Dew Point:   Wind: 3mph
Humidity: 57%   Direction: 100°E
Pressure: 30.35"   Gusts: NA
Location:  38.78°N, 107.95°W
Report Text: KAJZ 241435Z AUTO 10003KT 10SM CLR 09/01 A3035 RMK AO2 T00890009
Loading
Personal Weather Stations






























Interactive Weather Map
Tropical Storm Tracking
New forecast layout! Learn more

10-Day Weather Forecast

Advertisements
Track Severe Weather on mobile